sensor_id;sensor_type;location;lat;lon;timestamp;P1;durP1;ratioP1;P2;durP2;ratioP2
3341;SDS011;1684;50.748;6.154;2023-11-19T00:01:25;4.60;;;1.73;;
3341;SDS011;1684;50.748;6.154;2023-11-19T00:03:54;4.50;;;1.83;;
3341;SDS011;1684;50.748;6.154;2023-11-19T00:06:22;3.70;;;1.83;;
3341;SDS011;1684;50.748;6.154;2023-11-19T00:08:51;4.83;;;1.97;;
3341;SDS011;1684;50.748;6.154;2023-11-19T00:11:19;4.97;;;1.80;;
3341;SDS011;1684;50.748;6.154;2023-11-19T00:13:50;4.20;;;1.70;;
3341;SDS011;1684;50.748;6.154;2023-11-19T00:16:18;4.23;;;2.03;;
3341;SDS011;1684;50.748;6.154;2023-11-19T00:18:47;3.87;;;1.80;;
3341;SDS011;1684;50.748;6.154;2023-11-19T00:21:16;3.87;;;1.73;;
3341;SDS011;1684;50.748;6.154;2023-11-19T00:23:44;5.20;;;2.60;;
3341;SDS011;1684;50.748;6.154;2023-11-19T00:26:12;4.07;;;2.33;;
3341;SDS011;1684;50.748;6.154;2023-11-19T00:28:41;5.53;;;2.93;;
3341;SDS011;1684;50.748;6.154;2023-11-19T00:31:11;5.00;;;2.23;;
3341;SDS011;1684;50.748;6.154;2023-11-19T00:33:39;5.40;;;2.80;;
3341;SDS011;1684;50.748;6.154;2023-11-19T00:36:10;5.70;;;2.40;;
3341;SDS011;1684;50.748;6.154;2023-11-19T00:38:39;6.43;;;3.70;;
3341;SDS011;1684;50.748;6.154;2023-11-19T00:41:07;4.80;;;2.50;;
3341;SDS011;1684;50.748;6.154;2023-11-19T00:43:36;8.23;;;3.53;;
3341;SDS011;1684;50.748;6.154;2023-11-19T00:46:06;6.30;;;3.97;;
3341;SDS011;1684;50.748;6.154;2023-11-19T00:48:38;9.80;;;4.20;;
3341;SDS011;1684;50.748;6.154;2023-11-19T00:51:06;6.50;;;3.17;;
3341;SDS011;1684;50.748;6.154;2023-11-19T00:53:35;9.53;;;3.43;;
3341;SDS011;1684;50.748;6.154;2023-11-19T00:56:03;8.90;;;3.60;;
3341;SDS011;1684;50.748;6.154;2023-11-19T00:58:32;7.83;;;4.10;;
3341;SDS011;1684;50.748;6.154;2023-11-19T01:01:00;7.03;;;4.23;;
3341;SDS011;1684;50.748;6.154;2023-11-19T01:03:28;13.10;;;3.70;;
3341;SDS011;1684;50.748;6.154;2023-11-19T01:06:00;10.63;;;4.73;;
3341;SDS011;1684;50.748;6.154;2023-11-19T01:08:29;13.03;;;3.53;;
3341;SDS011;1684;50.748;6.154;2023-11-19T01:10:57;7.47;;;4.30;;
3341;SDS011;1684;50.748;6.154;2023-11-19T01:13:26;8.37;;;3.90;;
3341;SDS011;1684;50.748;6.154;2023-11-19T01:15:54;7.43;;;2.90;;
3341;SDS011;1684;50.748;6.154;2023-11-19T01:18:23;6.83;;;3.70;;
3341;SDS011;1684;50.748;6.154;2023-11-19T01:20:51;11.77;;;3.40;;
3341;SDS011;1684;50.748;6.154;2023-11-19T01:23:21;7.30;;;3.70;;
3341;SDS011;1684;50.748;6.154;2023-11-19T01:25:49;6.13;;;3.60;;
3341;SDS011;1684;50.748;6.154;2023-11-19T01:28:17;11.80;;;3.97;;
3341;SDS011;1684;50.748;6.154;2023-11-19T01:30:46;9.93;;;4.63;;
3341;SDS011;1684;50.748;6.154;2023-11-19T01:33:14;9.30;;;4.20;;
3341;SDS011;1684;50.748;6.154;2023-11-19T01:35:42;9.07;;;4.20;;
3341;SDS011;1684;50.748;6.154;2023-11-19T01:38:11;16.70;;;4.70;;
3341;SDS011;1684;50.748;6.154;2023-11-19T01:40:41;13.13;;;5.00;;
3341;SDS011;1684;50.748;6.154;2023-11-19T01:43:09;13.50;;;4.20;;
3341;SDS011;1684;50.748;6.154;2023-11-19T01:45:40;11.20;;;4.00;;
3341;SDS011;1684;50.748;6.154;2023-11-19T01:48:08;9.80;;;5.13;;
3341;SDS011;1684;50.748;6.154;2023-11-19T01:50:37;13.50;;;6.27;;
3341;SDS011;1684;50.748;6.154;2023-11-19T01:53:06;12.00;;;5.00;;
3341;SDS011;1684;50.748;6.154;2023-11-19T01:55:35;16.23;;;4.93;;
3341;SDS011;1684;50.748;6.154;2023-11-19T01:58:04;15.40;;;5.90;;
3341;SDS011;1684;50.748;6.154;2023-11-19T02:00:33;12.97;;;4.83;;
3341;SDS011;1684;50.748;6.154;2023-11-19T02:03:01;20.43;;;5.90;;
3341;SDS011;1684;50.748;6.154;2023-11-19T02:05:31;19.40;;;5.63;;
3341;SDS011;1684;50.748;6.154;2023-11-19T02:07:59;13.90;;;5.33;;
3341;SDS011;1684;50.748;6.154;2023-11-19T02:10:28;8.30;;;5.33;;
3341;SDS011;1684;50.748;6.154;2023-11-19T02:12:58;15.20;;;5.87;;
3341;SDS011;1684;50.748;6.154;2023-11-19T02:15:30;12.70;;;5.93;;
3341;SDS011;1684;50.748;6.154;2023-11-19T02:20:42;20.73;;;5.63;;
3341;SDS011;1684;50.748;6.154;2023-11-19T02:23:11;15.83;;;5.27;;
3341;SDS011;1684;50.748;6.154;2023-11-19T02:25:39;13.77;;;5.00;;
3341;SDS011;1684;50.748;6.154;2023-11-19T02:28:09;14.20;;;5.20;;
3341;SDS011;1684;50.748;6.154;2023-11-19T02:30:38;19.03;;;6.40;;
3341;SDS011;1684;50.748;6.154;2023-11-19T02:33:07;15.07;;;5.87;;
3341;SDS011;1684;50.748;6.154;2023-11-19T02:35:35;14.63;;;5.37;;
3341;SDS011;1684;50.748;6.154;2023-11-19T02:38:03;16.30;;;7.20;;
3341;SDS011;1684;50.748;6.154;2023-11-19T02:40:34;20.73;;;5.73;;
3341;SDS011;1684;50.748;6.154;2023-11-19T02:43:02;17.33;;;5.40;;
3341;SDS011;1684;50.748;6.154;2023-11-19T02:45:33;18.90;;;6.40;;
3341;SDS011;1684;50.748;6.154;2023-11-19T02:48:02;14.57;;;5.30;;
3341;SDS011;1684;50.748;6.154;2023-11-19T02:50:32;17.33;;;6.30;;
3341;SDS011;1684;50.748;6.154;2023-11-19T02:53:00;12.60;;;4.77;;
3341;SDS011;1684;50.748;6.154;2023-11-19T02:55:29;15.90;;;5.53;;
3341;SDS011;1684;50.748;6.154;2023-11-19T02:58:02;13.90;;;5.70;;
3341;SDS011;1684;50.748;6.154;2023-11-19T03:00:39;16.17;;;4.80;;
3341;SDS011;1684;50.748;6.154;2023-11-19T03:03:15;15.33;;;7.33;;
3341;SDS011;1684;50.748;6.154;2023-11-19T03:05:47;13.23;;;6.40;;
3341;SDS011;1684;50.748;6.154;2023-11-19T03:08:15;13.43;;;5.70;;
3341;SDS011;1684;50.748;6.154;2023-11-19T03:10:46;17.67;;;5.50;;
3341;SDS011;1684;50.748;6.154;2023-11-19T03:13:15;10.73;;;4.70;;
3341;SDS011;1684;50.748;6.154;2023-11-19T03:15:45;22.80;;;6.33;;
3341;SDS011;1684;50.748;6.154;2023-11-19T03:18:14;15.33;;;5.30;;
3341;SDS011;1684;50.748;6.154;2023-11-19T03:20:42;14.43;;;5.50;;
3341;SDS011;1684;50.748;6.154;2023-11-19T03:23:10;18.67;;;5.20;;
3341;SDS011;1684;50.748;6.154;2023-11-19T03:25:39;15.17;;;6.40;;
3341;SDS011;1684;50.748;6.154;2023-11-19T03:28:07;17.63;;;6.33;;
3341;SDS011;1684;50.748;6.154;2023-11-19T03:30:36;21.73;;;7.40;;
3341;SDS011;1684;50.748;6.154;2023-11-19T03:33:05;17.93;;;6.27;;
3341;SDS011;1684;50.748;6.154;2023-11-19T03:35:34;14.57;;;6.77;;
3341;SDS011;1684;50.748;6.154;2023-11-19T03:38:02;23.13;;;7.17;;
3341;SDS011;1684;50.748;6.154;2023-11-19T03:40:31;23.23;;;8.50;;
3341;SDS011;1684;50.748;6.154;2023-11-19T03:42:59;12.57;;;7.13;;
3341;SDS011;1684;50.748;6.154;2023-11-19T03:45:27;15.00;;;8.13;;
3341;SDS011;1684;50.748;6.154;2023-11-19T03:47:55;15.90;;;7.40;;
3341;SDS011;1684;50.748;6.154;2023-11-19T03:50:25;18.03;;;8.83;;
3341;SDS011;1684;50.748;6.154;2023-11-19T03:52:53;21.57;;;9.67;;
3341;SDS011;1684;50.748;6.154;2023-11-19T03:55:22;18.50;;;7.53;;
3341;SDS011;1684;50.748;6.154;2023-11-19T03:57:50;14.03;;;6.20;;
3341;SDS011;1684;50.748;6.154;2023-11-19T04:00:18;19.83;;;6.97;;
3341;SDS011;1684;50.748;6.154;2023-11-19T04:02:47;18.53;;;7.73;;
3341;SDS011;1684;50.748;6.154;2023-11-19T04:05:16;22.47;;;5.90;;
3341;SDS011;1684;50.748;6.154;2023-11-19T04:07:46;52.60;;;7.70;;
3341;SDS011;1684;50.748;6.154;2023-11-19T04:10:14;12.30;;;6.00;;
3341;SDS011;1684;50.748;6.154;2023-11-19T04:12:44;22.53;;;8.10;;
3341;SDS011;1684;50.748;6.154;2023-11-19T04:15:12;20.00;;;6.13;;
3341;SDS011;1684;50.748;6.154;2023-11-19T04:17:40;24.00;;;8.67;;
3341;SDS011;1684;50.748;6.154;2023-11-19T04:20:09;20.00;;;8.30;;
3341;SDS011;1684;50.748;6.154;2023-11-19T04:22:39;22.17;;;7.77;;
3341;SDS011;1684;50.748;6.154;2023-11-19T04:25:09;26.43;;;7.87;;
3341;SDS011;1684;50.748;6.154;2023-11-19T04:27:38;26.30;;;8.23;;
3341;SDS011;1684;50.748;6.154;2023-11-19T04:30:06;19.37;;;8.47;;
3341;SDS011;1684;50.748;6.154;2023-11-19T04:32:37;21.80;;;7.80;;
3341;SDS011;1684;50.748;6.154;2023-11-19T04:35:06;28.10;;;7.33;;
3341;SDS011;1684;50.748;6.154;2023-11-19T04:37:35;20.67;;;6.43;;
3341;SDS011;1684;50.748;6.154;2023-11-19T04:40:04;33.63;;;8.77;;
3341;SDS011;1684;50.748;6.154;2023-11-19T04:42:33;23.57;;;6.53;;
3341;SDS011;1684;50.748;6.154;2023-11-19T04:45:02;27.00;;;7.80;;
3341;SDS011;1684;50.748;6.154;2023-11-19T04:47:32;28.20;;;7.20;;
3341;SDS011;1684;50.748;6.154;2023-11-19T04:50:00;23.63;;;8.33;;
3341;SDS011;1684;50.748;6.154;2023-11-19T04:52:29;33.70;;;7.83;;
3341;SDS011;1684;50.748;6.154;2023-11-19T04:54:57;32.20;;;7.90;;
3341;SDS011;1684;50.748;6.154;2023-11-19T04:57:26;25.60;;;7.70;;
3341;SDS011;1684;50.748;6.154;2023-11-19T04:59:55;26.17;;;7.57;;
3341;SDS011;1684;50.748;6.154;2023-11-19T05:02:24;20.53;;;5.43;;
3341;SDS011;1684;50.748;6.154;2023-11-19T05:04:52;23.83;;;6.80;;
3341;SDS011;1684;50.748;6.154;2023-11-19T05:07:21;26.77;;;6.20;;
3341;SDS011;1684;50.748;6.154;2023-11-19T05:09:49;24.83;;;6.90;;
3341;SDS011;1684;50.748;6.154;2023-11-19T05:12:17;22.97;;;6.80;;
3341;SDS011;1684;50.748;6.154;2023-11-19T05:14:46;19.37;;;6.57;;
3341;SDS011;1684;50.748;6.154;2023-11-19T05:17:18;17.67;;;7.10;;
3341;SDS011;1684;50.748;6.154;2023-11-19T05:19:46;19.90;;;8.87;;
3341;SDS011;1684;50.748;6.154;2023-11-19T05:22:15;28.10;;;8.87;;
3341;SDS011;1684;50.748;6.154;2023-11-19T05:24:43;17.33;;;6.60;;
3341;SDS011;1684;50.748;6.154;2023-11-19T05:27:12;32.70;;;8.77;;
3341;SDS011;1684;50.748;6.154;2023-11-19T05:29:40;36.77;;;7.73;;
3341;SDS011;1684;50.748;6.154;2023-11-19T05:32:09;21.50;;;6.23;;
3341;SDS011;1684;50.748;6.154;2023-11-19T05:34:39;27.13;;;5.90;;
3341;SDS011;1684;50.748;6.154;2023-11-19T05:37:11;26.30;;;8.33;;
3341;SDS011;1684;50.748;6.154;2023-11-19T05:39:39;16.37;;;6.73;;
3341;SDS011;1684;50.748;6.154;2023-11-19T05:42:07;29.07;;;7.73;;
3341;SDS011;1684;50.748;6.154;2023-11-19T05:44:36;32.00;;;9.47;;
3341;SDS011;1684;50.748;6.154;2023-11-19T05:47:07;32.63;;;8.90;;
3341;SDS011;1684;50.748;6.154;2023-11-19T05:49:35;20.83;;;6.37;;
3341;SDS011;1684;50.748;6.154;2023-11-19T05:52:05;26.40;;;8.00;;
3341;SDS011;1684;50.748;6.154;2023-11-19T05:54:37;29.13;;;8.20;;
3341;SDS011;1684;50.748;6.154;2023-11-19T05:57:05;29.33;;;8.20;;
3341;SDS011;1684;50.748;6.154;2023-11-19T05:59:35;29.43;;;8.53;;
3341;SDS011;1684;50.748;6.154;2023-11-19T06:02:03;32.33;;;8.10;;
3341;SDS011;1684;50.748;6.154;2023-11-19T06:04:32;30.20;;;8.67;;
3341;SDS011;1684;50.748;6.154;2023-11-19T06:07:00;32.30;;;7.60;;
3341;SDS011;1684;50.748;6.154;2023-11-19T06:09:30;30.87;;;9.50;;
3341;SDS011;1684;50.748;6.154;2023-11-19T06:12:00;22.90;;;8.00;;
3341;SDS011;1684;50.748;6.154;2023-11-19T06:14:29;27.07;;;8.50;;
3341;SDS011;1684;50.748;6.154;2023-11-19T06:16:58;31.60;;;7.80;;
3341;SDS011;1684;50.748;6.154;2023-11-19T06:19:26;23.23;;;6.73;;
3341;SDS011;1684;50.748;6.154;2023-11-19T06:21:56;29.70;;;10.17;;
3341;SDS011;1684;50.748;6.154;2023-11-19T06:24:24;34.03;;;7.70;;
3341;SDS011;1684;50.748;6.154;2023-11-19T06:26:54;34.00;;;7.23;;
3341;SDS011;1684;50.748;6.154;2023-11-19T06:29:22;31.47;;;7.30;;
3341;SDS011;1684;50.748;6.154;2023-11-19T06:31:51;41.13;;;8.33;;
3341;SDS011;1684;50.748;6.154;2023-11-19T06:34:19;26.10;;;7.70;;
3341;SDS011;1684;50.748;6.154;2023-11-19T06:36:47;22.47;;;7.43;;
3341;SDS011;1684;50.748;6.154;2023-11-19T06:39:15;37.43;;;9.27;;
3341;SDS011;1684;50.748;6.154;2023-11-19T06:41:44;35.80;;;7.97;;
3341;SDS011;1684;50.748;6.154;2023-11-19T06:44:14;24.33;;;6.87;;
3341;SDS011;1684;50.748;6.154;2023-11-19T06:46:43;28.73;;;7.97;;
3341;SDS011;1684;50.748;6.154;2023-11-19T06:49:12;31.43;;;9.00;;
3341;SDS011;1684;50.748;6.154;2023-11-19T06:51:41;32.10;;;10.60;;
3341;SDS011;1684;50.748;6.154;2023-11-19T06:54:10;26.77;;;7.37;;
3341;SDS011;1684;50.748;6.154;2023-11-19T06:56:38;29.87;;;7.90;;
3341;SDS011;1684;50.748;6.154;2023-11-19T06:59:08;21.03;;;7.70;;
3341;SDS011;1684;50.748;6.154;2023-11-19T07:01:38;41.30;;;10.30;;
3341;SDS011;1684;50.748;6.154;2023-11-19T07:04:10;24.57;;;8.07;;
3341;SDS011;1684;50.748;6.154;2023-11-19T07:06:38;37.10;;;8.97;;
3341;SDS011;1684;50.748;6.154;2023-11-19T07:09:08;41.90;;;9.67;;
3341;SDS011;1684;50.748;6.154;2023-11-19T07:11:37;24.70;;;7.80;;
3341;SDS011;1684;50.748;6.154;2023-11-19T07:14:06;28.20;;;8.90;;
3341;SDS011;1684;50.748;6.154;2023-11-19T07:16:34;29.87;;;8.03;;
3341;SDS011;1684;50.748;6.154;2023-11-19T07:19:06;30.60;;;7.47;;
3341;SDS011;1684;50.748;6.154;2023-11-19T07:21:37;29.33;;;11.93;;
3341;SDS011;1684;50.748;6.154;2023-11-19T07:24:10;33.97;;;9.17;;
3341;SDS011;1684;50.748;6.154;2023-11-19T07:26:41;37.97;;;8.07;;
3341;SDS011;1684;50.748;6.154;2023-11-19T07:29:09;32.63;;;8.13;;
3341;SDS011;1684;50.748;6.154;2023-11-19T07:31:53;26.30;;;8.53;;
3341;SDS011;1684;50.748;6.154;2023-11-19T07:34:24;27.07;;;9.53;;
3341;SDS011;1684;50.748;6.154;2023-11-19T07:36:52;28.37;;;8.73;;
3341;SDS011;1684;50.748;6.154;2023-11-19T07:39:23;42.67;;;9.53;;
3341;SDS011;1684;50.748;6.154;2023-11-19T07:41:51;42.03;;;9.53;;
3341;SDS011;1684;50.748;6.154;2023-11-19T07:44:20;27.40;;;9.97;;
3341;SDS011;1684;50.748;6.154;2023-11-19T07:46:48;49.87;;;8.40;;
3341;SDS011;1684;50.748;6.154;2023-11-19T07:49:17;34.00;;;8.90;;
3341;SDS011;1684;50.748;6.154;2023-11-19T07:51:46;49.53;;;8.73;;
3341;SDS011;1684;50.748;6.154;2023-11-19T07:54:15;39.70;;;8.87;;
3341;SDS011;1684;50.748;6.154;2023-11-19T07:56:43;44.23;;;9.17;;
3341;SDS011;1684;50.748;6.154;2023-11-19T07:59:11;30.50;;;9.67;;
3341;SDS011;1684;50.748;6.154;2023-11-19T08:01:40;30.37;;;7.90;;
3341;SDS011;1684;50.748;6.154;2023-11-19T08:04:08;32.33;;;7.80;;
3341;SDS011;1684;50.748;6.154;2023-11-19T08:06:36;30.03;;;8.50;;
3341;SDS011;1684;50.748;6.154;2023-11-19T08:09:06;31.80;;;8.80;;
3341;SDS011;1684;50.748;6.154;2023-11-19T08:11:40;33.23;;;8.70;;
3341;SDS011;1684;50.748;6.154;2023-11-19T08:14:08;32.00;;;8.33;;
3341;SDS011;1684;50.748;6.154;2023-11-19T08:16:36;27.50;;;9.20;;
3341;SDS011;1684;50.748;6.154;2023-11-19T08:19:05;35.17;;;7.73;;
3341;SDS011;1684;50.748;6.154;2023-11-19T08:21:34;33.90;;;7.80;;
3341;SDS011;1684;50.748;6.154;2023-11-19T08:24:03;44.73;;;10.33;;
3341;SDS011;1684;50.748;6.154;2023-11-19T08:26:33;36.13;;;8.47;;
3341;SDS011;1684;50.748;6.154;2023-11-19T08:29:02;32.73;;;6.83;;
3341;SDS011;1684;50.748;6.154;2023-11-19T08:31:36;41.57;;;9.03;;
3341;SDS011;1684;50.748;6.154;2023-11-19T08:34:04;49.53;;;10.00;;
3341;SDS011;1684;50.748;6.154;2023-11-19T08:36:35;28.67;;;8.30;;
3341;SDS011;1684;50.748;6.154;2023-11-19T08:39:03;28.17;;;6.83;;
3341;SDS011;1684;50.748;6.154;2023-11-19T08:41:31;30.13;;;8.20;;
3341;SDS011;1684;50.748;6.154;2023-11-19T08:44:01;26.60;;;8.83;;
3341;SDS011;1684;50.748;6.154;2023-11-19T08:46:29;40.13;;;10.63;;
3341;SDS011;1684;50.748;6.154;2023-11-19T08:48:58;29.60;;;8.03;;
3341;SDS011;1684;50.748;6.154;2023-11-19T08:51:27;28.03;;;8.43;;
3341;SDS011;1684;50.748;6.154;2023-11-19T08:53:55;49.93;;;9.37;;
3341;SDS011;1684;50.748;6.154;2023-11-19T08:56:23;35.13;;;8.40;;
3341;SDS011;1684;50.748;6.154;2023-11-19T08:58:58;36.57;;;9.00;;
3341;SDS011;1684;50.748;6.154;2023-11-19T09:01:27;24.40;;;6.70;;
3341;SDS011;1684;50.748;6.154;2023-11-19T09:03:56;27.50;;;9.30;;
3341;SDS011;1684;50.748;6.154;2023-11-19T09:06:24;33.27;;;8.00;;
3341;SDS011;1684;50.748;6.154;2023-11-19T09:08:53;37.77;;;9.37;;
3341;SDS011;1684;50.748;6.154;2023-11-19T09:11:26;31.50;;;7.40;;
3341;SDS011;1684;50.748;6.154;2023-11-19T09:13:55;26.50;;;8.87;;
3341;SDS011;1684;50.748;6.154;2023-11-19T09:16:23;46.37;;;9.33;;
3341;SDS011;1684;50.748;6.154;2023-11-19T09:18:53;22.93;;;8.03;;
3341;SDS011;1684;50.748;6.154;2023-11-19T09:21:21;35.97;;;8.40;;
3341;SDS011;1684;50.748;6.154;2023-11-19T09:23:49;47.63;;;8.70;;
3341;SDS011;1684;50.748;6.154;2023-11-19T09:26:19;36.20;;;7.83;;
3341;SDS011;1684;50.748;6.154;2023-11-19T09:28:47;37.90;;;8.10;;
3341;SDS011;1684;50.748;6.154;2023-11-19T09:31:16;30.60;;;9.70;;
3341;SDS011;1684;50.748;6.154;2023-11-19T09:33:46;32.80;;;7.37;;
3341;SDS011;1684;50.748;6.154;2023-11-19T09:36:15;31.47;;;7.57;;
3341;SDS011;1684;50.748;6.154;2023-11-19T09:38:45;46.63;;;8.63;;
3341;SDS011;1684;50.748;6.154;2023-11-19T09:41:13;31.90;;;7.73;;
3341;SDS011;1684;50.748;6.154;2023-11-19T09:43:42;44.20;;;9.07;;
3341;SDS011;1684;50.748;6.154;2023-11-19T09:46:10;33.90;;;8.27;;
3341;SDS011;1684;50.748;6.154;2023-11-19T09:48:41;28.53;;;6.73;;
3341;SDS011;1684;50.748;6.154;2023-11-19T09:51:10;34.57;;;7.03;;
3341;SDS011;1684;50.748;6.154;2023-11-19T09:53:40;33.67;;;6.70;;
3341;SDS011;1684;50.748;6.154;2023-11-19T09:56:08;36.40;;;9.33;;
3341;SDS011;1684;50.748;6.154;2023-11-19T09:58:40;25.30;;;7.40;;
3341;SDS011;1684;50.748;6.154;2023-11-19T10:01:09;28.63;;;6.73;;
3341;SDS011;1684;50.748;6.154;2023-11-19T10:03:41;21.90;;;6.10;;
3341;SDS011;1684;50.748;6.154;2023-11-19T10:06:10;28.97;;;8.67;;
3341;SDS011;1684;50.748;6.154;2023-11-19T10:08:41;33.87;;;7.07;;
3341;SDS011;1684;50.748;6.154;2023-11-19T10:11:10;30.53;;;8.30;;
3341;SDS011;1684;50.748;6.154;2023-11-19T10:13:40;26.73;;;6.50;;
3341;SDS011;1684;50.748;6.154;2023-11-19T10:16:09;24.10;;;5.60;;
3341;SDS011;1684;50.748;6.154;2023-11-19T10:18:42;28.40;;;7.07;;
3341;SDS011;1684;50.748;6.154;2023-11-19T10:21:11;23.37;;;6.23;;
3341;SDS011;1684;50.748;6.154;2023-11-19T10:23:52;32.30;;;8.60;;
3341;SDS011;1684;50.748;6.154;2023-11-19T10:26:22;30.40;;;7.47;;
3341;SDS011;1684;50.748;6.154;2023-11-19T10:28:51;28.87;;;5.60;;
3341;SDS011;1684;50.748;6.154;2023-11-19T10:31:19;30.80;;;7.40;;
3341;SDS011;1684;50.748;6.154;2023-11-19T10:33:51;17.90;;;6.00;;
3341;SDS011;1684;50.748;6.154;2023-11-19T10:36:20;22.80;;;5.87;;
3341;SDS011;1684;50.748;6.154;2023-11-19T10:38:55;23.50;;;5.60;;
3341;SDS011;1684;50.748;6.154;2023-11-19T10:41:26;24.80;;;5.13;;
3341;SDS011;1684;50.748;6.154;2023-11-19T10:43:57;18.47;;;6.93;;
3341;SDS011;1684;50.748;6.154;2023-11-19T10:46:35;18.67;;;5.63;;
3341;SDS011;1684;50.748;6.154;2023-11-19T10:49:04;22.77;;;5.60;;
3341;SDS011;1684;50.748;6.154;2023-11-19T10:51:33;25.20;;;4.80;;
3341;SDS011;1684;50.748;6.154;2023-11-19T10:54:03;19.60;;;4.83;;
3341;SDS011;1684;50.748;6.154;2023-11-19T10:56:32;14.63;;;3.90;;
3341;SDS011;1684;50.748;6.154;2023-11-19T10:59:02;19.90;;;4.37;;
3341;SDS011;1684;50.748;6.154;2023-11-19T11:01:48;22.40;;;4.67;;
3341;SDS011;1684;50.748;6.154;2023-11-19T11:04:19;18.00;;;5.13;;
3341;SDS011;1684;50.748;6.154;2023-11-19T11:06:50;15.57;;;4.03;;
3341;SDS011;1684;50.748;6.154;2023-11-19T11:09:20;22.73;;;5.13;;
3341;SDS011;1684;50.748;6.154;2023-11-19T11:11:49;16.90;;;4.53;;
3341;SDS011;1684;50.748;6.154;2023-11-19T11:14:18;17.60;;;5.10;;
3341;SDS011;1684;50.748;6.154;2023-11-19T11:16:47;9.93;;;2.93;;
3341;SDS011;1684;50.748;6.154;2023-11-19T11:19:16;17.83;;;3.97;;
3341;SDS011;1684;50.748;6.154;2023-11-19T11:21:45;17.80;;;6.20;;
3341;SDS011;1684;50.748;6.154;2023-11-19T11:24:26;25.97;;;4.67;;
3341;SDS011;1684;50.748;6.154;2023-11-19T11:27:02;16.80;;;5.50;;
3341;SDS011;1684;50.748;6.154;2023-11-19T11:29:37;16.10;;;5.30;;
3341;SDS011;1684;50.748;6.154;2023-11-19T11:32:08;17.77;;;4.70;;
3341;SDS011;1684;50.748;6.154;2023-11-19T11:34:50;19.80;;;4.97;;
3341;SDS011;1684;50.748;6.154;2023-11-19T11:37:25;16.40;;;5.10;;
3341;SDS011;1684;50.748;6.154;2023-11-19T11:39:55;16.27;;;4.13;;
3341;SDS011;1684;50.748;6.154;2023-11-19T11:42:35;17.60;;;4.67;;
3341;SDS011;1684;50.748;6.154;2023-11-19T11:45:03;16.93;;;4.00;;
3341;SDS011;1684;50.748;6.154;2023-11-19T11:50:21;17.00;;;4.27;;
3341;SDS011;1684;50.748;6.154;2023-11-19T11:55:57;14.80;;;3.30;;
3341;SDS011;1684;50.748;6.154;2023-11-19T11:58:36;17.60;;;5.03;;
3341;SDS011;1684;50.748;6.154;2023-11-19T12:01:14;18.23;;;3.90;;
3341;SDS011;1684;50.748;6.154;2023-11-19T12:03:46;17.30;;;3.97;;
3341;SDS011;1684;50.748;6.154;2023-11-19T12:06:15;12.70;;;5.10;;
3341;SDS011;1684;50.748;6.154;2023-11-19T12:08:43;13.03;;;4.67;;
3341;SDS011;1684;50.748;6.154;2023-11-19T12:11:16;14.07;;;4.20;;
3341;SDS011;1684;50.748;6.154;2023-11-19T12:13:46;17.50;;;4.27;;
3341;SDS011;1684;50.748;6.154;2023-11-19T12:16:15;20.70;;;4.30;;
3341;SDS011;1684;50.748;6.154;2023-11-19T12:18:44;13.50;;;3.80;;
3341;SDS011;1684;50.748;6.154;2023-11-19T12:21:12;21.97;;;3.60;;
3341;SDS011;1684;50.748;6.154;2023-11-19T12:23:55;20.17;;;4.93;;
3341;SDS011;1684;50.748;6.154;2023-11-19T12:26:32;14.53;;;3.70;;
3341;SDS011;1684;50.748;6.154;2023-11-19T12:29:01;18.13;;;4.03;;
3341;SDS011;1684;50.748;6.154;2023-11-19T12:31:34;18.33;;;4.13;;
3341;SDS011;1684;50.748;6.154;2023-11-19T12:34:06;18.67;;;4.47;;
3341;SDS011;1684;50.748;6.154;2023-11-19T12:36:39;24.67;;;4.20;;
3341;SDS011;1684;50.748;6.154;2023-11-19T12:39:09;11.90;;;4.43;;
3341;SDS011;1684;50.748;6.154;2023-11-19T12:41:50;19.40;;;4.57;;
3341;SDS011;1684;50.748;6.154;2023-11-19T12:44:18;16.13;;;4.63;;
3341;SDS011;1684;50.748;6.154;2023-11-19T12:46:58;22.37;;;4.50;;
3341;SDS011;1684;50.748;6.154;2023-11-19T12:49:27;19.53;;;4.63;;
3341;SDS011;1684;50.748;6.154;2023-11-19T12:51:55;17.60;;;4.40;;
3341;SDS011;1684;50.748;6.154;2023-11-19T12:54:34;21.57;;;3.60;;
3341;SDS011;1684;50.748;6.154;2023-11-19T12:57:04;17.00;;;5.10;;
3341;SDS011;1684;50.748;6.154;2023-11-19T12:59:33;21.83;;;5.57;;
3341;SDS011;1684;50.748;6.154;2023-11-19T13:02:01;22.83;;;4.63;;
3341;SDS011;1684;50.748;6.154;2023-11-19T13:04:32;15.63;;;4.43;;
3341;SDS011;1684;50.748;6.154;2023-11-19T13:07:01;21.63;;;4.50;;
3341;SDS011;1684;50.748;6.154;2023-11-19T13:09:31;17.07;;;4.40;;
3341;SDS011;1684;50.748;6.154;2023-11-19T13:12:11;19.70;;;4.90;;
3341;SDS011;1684;50.748;6.154;2023-11-19T13:14:41;21.23;;;5.90;;
3341;SDS011;1684;50.748;6.154;2023-11-19T13:17:15;21.27;;;4.07;;
3341;SDS011;1684;50.748;6.154;2023-11-19T13:19:43;16.07;;;4.07;;
3341;SDS011;1684;50.748;6.154;2023-11-19T13:22:11;14.87;;;4.50;;
3341;SDS011;1684;50.748;6.154;2023-11-19T13:24:39;11.07;;;3.13;;
3341;SDS011;1684;50.748;6.154;2023-11-19T13:27:09;20.10;;;4.57;;
3341;SDS011;1684;50.748;6.154;2023-11-19T13:29:37;14.70;;;4.03;;
3341;SDS011;1684;50.748;6.154;2023-11-19T13:32:07;12.83;;;3.33;;
3341;SDS011;1684;50.748;6.154;2023-11-19T13:34:35;15.00;;;3.77;;
3341;SDS011;1684;50.748;6.154;2023-11-19T13:37:04;17.63;;;4.10;;
3341;SDS011;1684;50.748;6.154;2023-11-19T13:39:32;27.63;;;4.40;;
3341;SDS011;1684;50.748;6.154;2023-11-19T13:42:00;14.63;;;3.30;;
3341;SDS011;1684;50.748;6.154;2023-11-19T13:44:32;16.23;;;4.87;;
3341;SDS011;1684;50.748;6.154;2023-11-19T13:47:00;10.70;;;3.33;;
3341;SDS011;1684;50.748;6.154;2023-11-19T13:49:30;15.50;;;4.17;;
3341;SDS011;1684;50.748;6.154;2023-11-19T13:51:58;13.83;;;3.17;;
3341;SDS011;1684;50.748;6.154;2023-11-19T13:54:27;15.03;;;3.77;;
3341;SDS011;1684;50.748;6.154;2023-11-19T13:56:55;15.37;;;2.93;;
3341;SDS011;1684;50.748;6.154;2023-11-19T13:59:24;14.80;;;3.10;;
3341;SDS011;1684;50.748;6.154;2023-11-19T14:01:53;19.77;;;3.67;;
3341;SDS011;1684;50.748;6.154;2023-11-19T14:04:21;10.27;;;4.03;;
3341;SDS011;1684;50.748;6.154;2023-11-19T14:06:51;15.60;;;3.87;;
3341;SDS011;1684;50.748;6.154;2023-11-19T14:09:21;9.63;;;3.20;;
3341;SDS011;1684;50.748;6.154;2023-11-19T14:11:49;10.27;;;3.70;;
3341;SDS011;1684;50.748;6.154;2023-11-19T14:14:18;9.80;;;4.00;;
3341;SDS011;1684;50.748;6.154;2023-11-19T14:16:46;15.30;;;3.67;;
3341;SDS011;1684;50.748;6.154;2023-11-19T14:19:15;21.60;;;3.67;;
3341;SDS011;1684;50.748;6.154;2023-11-19T14:21:43;13.90;;;5.03;;
3341;SDS011;1684;50.748;6.154;2023-11-19T14:24:15;16.43;;;4.00;;
3341;SDS011;1684;50.748;6.154;2023-11-19T14:26:45;9.07;;;2.20;;
3341;SDS011;1684;50.748;6.154;2023-11-19T14:29:15;23.03;;;3.70;;
3341;SDS011;1684;50.748;6.154;2023-11-19T14:31:43;13.70;;;4.27;;
3341;SDS011;1684;50.748;6.154;2023-11-19T14:34:11;25.37;;;5.73;;
3341;SDS011;1684;50.748;6.154;2023-11-19T14:36:40;14.70;;;3.57;;
3341;SDS011;1684;50.748;6.154;2023-11-19T14:39:08;17.13;;;3.40;;
3341;SDS011;1684;50.748;6.154;2023-11-19T14:41:37;18.03;;;4.10;;
3341;SDS011;1684;50.748;6.154;2023-11-19T14:44:06;18.67;;;4.83;;
3341;SDS011;1684;50.748;6.154;2023-11-19T14:46:35;15.60;;;4.00;;
3341;SDS011;1684;50.748;6.154;2023-11-19T14:49:05;10.97;;;3.10;;
3341;SDS011;1684;50.748;6.154;2023-11-19T14:51:35;12.93;;;3.30;;
3341;SDS011;1684;50.748;6.154;2023-11-19T14:54:04;19.50;;;5.10;;
3341;SDS011;1684;50.748;6.154;2023-11-19T14:56:32;18.83;;;3.87;;
3341;SDS011;1684;50.748;6.154;2023-11-19T14:59:02;23.47;;;4.40;;
3341;SDS011;1684;50.748;6.154;2023-11-19T15:01:30;17.90;;;3.60;;
3341;SDS011;1684;50.748;6.154;2023-11-19T15:03:58;15.37;;;4.17;;
3341;SDS011;1684;50.748;6.154;2023-11-19T15:06:31;15.67;;;3.70;;
3341;SDS011;1684;50.748;6.154;2023-11-19T15:09:00;17.17;;;4.60;;
3341;SDS011;1684;50.748;6.154;2023-11-19T15:11:28;20.00;;;5.30;;
3341;SDS011;1684;50.748;6.154;2023-11-19T15:13:57;11.10;;;4.20;;
3341;SDS011;1684;50.748;6.154;2023-11-19T15:16:26;17.53;;;4.67;;
3341;SDS011;1684;50.748;6.154;2023-11-19T15:18:59;10.97;;;4.10;;
3341;SDS011;1684;50.748;6.154;2023-11-19T15:21:29;15.43;;;4.10;;
3341;SDS011;1684;50.748;6.154;2023-11-19T15:23:58;20.63;;;4.50;;
3341;SDS011;1684;50.748;6.154;2023-11-19T15:26:27;20.50;;;3.97;;